sensor_id;sensor_type;location;lat;lon;timestamp;pressure;altitude;pressure_sealevel;temperature;humidity
76594;BME280;65482;50.240;14.302;2023-05-23T00:01:35;99128.75;;;16.26;54.45
76594;BME280;65482;50.240;14.302;2023-05-23T00:04:04;99134.88;;;16.26;54.53
76594;BME280;65482;50.240;14.302;2023-05-23T00:06:32;99126.69;;;16.28;54.43
76594;BME280;65482;50.240;14.302;2023-05-23T00:09:13;99125.66;;;16.29;54.25
76594;BME280;65482;50.240;14.302;2023-05-23T00:11:54;99132.63;;;16.23;54.70
76594;BME280;65482;50.240;14.302;2023-05-23T00:14:23;99135.50;;;16.15;55.67
76594;BME280;65482;50.240;14.302;2023-05-23T00:16:49;99136.13;;;16.10;55.62
76594;BME280;65482;50.240;14.302;2023-05-23T00:19:17;99132.03;;;16.08;55.81
76594;BME280;65482;50.240;14.302;2023-05-23T00:21:44;99132.44;;;16.05;56.16
76594;BME280;65482;50.240;14.302;2023-05-23T00:24:13;99138.59;;;15.92;56.80
76594;BME280;65482;50.240;14.302;2023-05-23T00:26:43;99132.25;;;15.80;57.34
76594;BME280;65482;50.240;14.302;2023-05-23T00:29:09;99132.22;;;15.73;57.61
76594;BME280;65482;50.240;14.302;2023-05-23T00:31:44;99123.19;;;15.67;57.74
76594;BME280;65482;50.240;14.302;2023-05-23T00:34:12;99123.38;;;15.59;57.64
76594;BME280;65482;50.240;14.302;2023-05-23T00:36:38;99122.75;;;15.57;58.24
76594;BME280;65482;50.240;14.302;2023-05-23T00:39:06;99117.44;;;15.57;58.15
76594;BME280;65482;50.240;14.302;2023-05-23T00:41:33;99114.97;;;15.56;58.31
76594;BME280;65482;50.240;14.302;2023-05-23T00:43:58;99122.16;;;15.48;58.56
76594;BME280;65482;50.240;14.302;2023-05-23T00:46:28;99126.41;;;15.36;59.11
76594;BME280;65482;50.240;14.302;2023-05-23T00:48:55;99121.06;;;15.29;59.42
76594;BME280;65482;50.240;14.302;2023-05-23T00:51:20;99119.22;;;15.23;59.62
76594;BME280;65482;50.240;14.302;2023-05-23T00:53:47;99110.63;;;15.21;59.96
76594;BME280;65482;50.240;14.302;2023-05-23T00:56:13;99112.41;;;15.07;60.51
76594;BME280;65482;50.240;14.302;2023-05-23T00:58:39;99112.00;;;15.04;60.91
76594;BME280;65482;50.240;14.302;2023-05-23T01:01:06;99105.25;;;15.01;60.79
76594;BME280;65482;50.240;14.302;2023-05-23T01:03:32;99101.34;;;14.97;60.88
76594;BME280;65482;50.240;14.302;2023-05-23T01:05:57;99096.84;;;14.98;60.96
76594;BME280;65482;50.240;14.302;2023-05-23T01:08:23;99094.00;;;14.99;60.84
76594;BME280;65482;50.240;14.302;2023-05-23T01:10:49;99087.84;;;14.92;61.04
76594;BME280;65482;50.240;14.302;2023-05-23T01:13:41;99095.81;;;14.85;61.24
76594;BME280;65482;50.240;14.302;2023-05-23T01:16:13;99095.81;;;14.92;61.40
76594;BME280;65482;50.240;14.302;2023-05-23T01:19:15;99089.06;;;14.83;61.68
76594;BME280;65482;50.240;14.302;2023-05-23T01:21:52;99088.19;;;14.76;61.57
76594;BME280;65482;50.240;14.302;2023-05-23T01:24:28;99096.16;;;14.69;62.12
76594;BME280;65482;50.240;14.302;2023-05-23T01:29:44;99109.41;;;14.62;62.55
76594;BME280;65482;50.240;14.302;2023-05-23T01:32:11;99102.81;;;14.58;63.41
76594;BME280;65482;50.240;14.302;2023-05-23T01:34:39;99110.53;;;14.53;63.54
76594;BME280;65482;50.240;14.302;2023-05-23T01:37:09;99124.59;;;14.53;63.41
76594;BME280;65482;50.240;14.302;2023-05-23T01:39:36;99152.81;;;14.55;63.25
76594;BME280;65482;50.240;14.302;2023-05-23T01:42:02;99152.81;;;14.55;63.18
76594;BME280;65482;50.240;14.302;2023-05-23T01:44:29;99145.66;;;14.55;62.92
76594;BME280;65482;50.240;14.302;2023-05-23T01:46:54;99152.81;;;14.55;62.49
76594;BME280;65482;50.240;14.302;2023-05-23T01:49:21;99145.66;;;14.55;61.90
76594;BME280;65482;50.240;14.302;2023-05-23T01:51:47;99155.84;;;14.51;61.71
76594;BME280;65482;50.240;14.302;2023-05-23T01:54:15;99160.56;;;14.56;60.93
76594;BME280;65482;50.240;14.302;2023-05-23T01:56:41;99158.53;;;14.58;60.98
76594;BME280;65482;50.240;14.302;2023-05-23T01:59:08;99156.94;;;14.57;61.01
76594;BME280;65482;50.240;14.302;2023-05-23T02:01:33;99150.81;;;14.57;60.52
76594;BME280;65482;50.240;14.302;2023-05-23T02:03:59;99145.34;;;14.65;60.05
76594;BME280;65482;50.240;14.302;2023-05-23T02:06:25;99155.13;;;14.64;60.14
76594;BME280;65482;50.240;14.302;2023-05-23T02:08:51;99156.13;;;14.63;60.14
76594;BME280;65482;50.240;14.302;2023-05-23T02:11:16;99160.81;;;14.61;60.06
76594;BME280;65482;50.240;14.302;2023-05-23T02:13:42;99165.53;;;14.66;60.82
76594;BME280;65482;50.240;14.302;2023-05-23T02:16:08;99161.19;;;14.58;61.26
76594;BME280;65482;50.240;14.302;2023-05-23T02:18:34;99155.28;;;14.56;61.27
76594;BME280;65482;50.240;14.302;2023-05-23T02:21:04;99157.91;;;14.56;61.13
76594;BME280;65482;50.240;14.302;2023-05-23T02:23:29;99157.75;;;14.58;60.82
76594;BME280;65482;50.240;14.302;2023-05-23T02:25:55;99166.63;;;14.50;61.38
76594;BME280;65482;50.240;14.302;2023-05-23T02:28:21;99164.19;;;14.48;61.54
76594;BME280;65482;50.240;14.302;2023-05-23T02:30:46;99157.28;;;14.54;61.19
76594;BME280;65482;50.240;14.302;2023-05-23T02:33:12;99147.50;;;14.55;61.71
76594;BME280;65482;50.240;14.302;2023-05-23T02:35:38;99143.16;;;14.47;62.60
76594;BME280;65482;50.240;14.302;2023-05-23T02:38:04;99133.31;;;14.41;61.97
76594;BME280;65482;50.240;14.302;2023-05-23T02:40:29;99129.44;;;14.43;62.42
76594;BME280;65482;50.240;14.302;2023-05-23T02:42:55;99126.22;;;14.48;61.77
76594;BME280;65482;50.240;14.302;2023-05-23T02:45:22;99130.06;;;14.45;61.88
76594;BME280;65482;50.240;14.302;2023-05-23T02:47:48;99122.75;;;14.47;61.94
76594;BME280;65482;50.240;14.302;2023-05-23T02:50:13;99107.84;;;14.46;61.79
76594;BME280;65482;50.240;14.302;2023-05-23T02:52:39;99111.50;;;14.45;62.27
76594;BME280;65482;50.240;14.302;2023-05-23T02:55:07;99101.91;;;14.44;61.77
76594;BME280;65482;50.240;14.302;2023-05-23T02:57:33;99101.50;;;14.47;61.91
76594;BME280;65482;50.240;14.302;2023-05-23T02:59:58;99103.97;;;14.49;62.13
76594;BME280;65482;50.240;14.302;2023-05-23T03:02:24;99094.22;;;14.56;61.58
76594;BME280;65482;50.240;14.302;2023-05-23T03:04:50;99093.22;;;14.57;61.38
76594;BME280;65482;50.240;14.302;2023-05-23T03:07:15;99097.75;;;14.63;60.83
76594;BME280;65482;50.240;14.302;2023-05-23T03:09:41;99107.56;;;14.63;61.30
76594;BME280;65482;50.240;14.302;2023-05-23T03:12:06;99107.13;;;14.59;61.19
76594;BME280;65482;50.240;14.302;2023-05-23T03:14:32;99096.13;;;14.62;60.99
76594;BME280;65482;50.240;14.302;2023-05-23T03:16:57;99097.16;;;14.68;60.68
76594;BME280;65482;50.240;14.302;2023-05-23T03:19:23;99090.41;;;14.72;60.53
76594;BME280;65482;50.240;14.302;2023-05-23T03:21:49;99091.47;;;14.71;60.85
76594;BME280;65482;50.240;14.302;2023-05-23T03:24:16;99082.28;;;14.74;60.81
76594;BME280;65482;50.240;14.302;2023-05-23T03:26:42;99086.16;;;14.78;60.69
76594;BME280;65482;50.240;14.302;2023-05-23T03:29:07;99085.16;;;14.79;60.53
76594;BME280;65482;50.240;14.302;2023-05-23T03:31:35;99085.78;;;14.87;60.43
76594;BME280;65482;50.240;14.302;2023-05-23T03:34:01;99081.72;;;14.91;60.24
76594;BME280;65482;50.240;14.302;2023-05-23T03:36:27;99084.81;;;14.95;61.01
76594;BME280;65482;50.240;14.302;2023-05-23T03:38:53;99100.38;;;15.05;60.71
76594;BME280;65482;50.240;14.302;2023-05-23T03:41:18;99091.41;;;15.13;60.29
76594;BME280;65482;50.240;14.302;2023-05-23T03:43:44;99097.53;;;15.20;60.57
76594;BME280;65482;50.240;14.302;2023-05-23T03:46:09;99099.00;;;15.29;60.24
76594;BME280;65482;50.240;14.302;2023-05-23T03:48:35;99093.31;;;15.32;60.40
76594;BME280;65482;50.240;14.302;2023-05-23T03:51:01;99086.75;;;15.35;60.15
76594;BME280;65482;50.240;14.302;2023-05-23T03:53:27;99079.16;;;15.25;60.76
76594;BME280;65482;50.240;14.302;2023-05-23T03:55:53;99070.16;;;15.26;60.61
76594;BME280;65482;50.240;14.302;2023-05-23T03:58:19;99080.41;;;15.29;60.56
76594;BME280;65482;50.240;14.302;2023-05-23T04:00:45;99076.50;;;15.31;60.59
76594;BME280;65482;50.240;14.302;2023-05-23T04:03:11;99071.44;;;15.37;60.47
76594;BME280;65482;50.240;14.302;2023-05-23T04:05:39;99065.91;;;15.38;60.53
76594;BME280;65482;50.240;14.302;2023-05-23T04:08:05;99076.13;;;15.41;60.51
76594;BME280;65482;50.240;14.302;2023-05-23T04:10:31;99076.94;;;15.42;60.26
76594;BME280;65482;50.240;14.302;2023-05-23T04:12:56;99071.66;;;15.48;60.59
76594;BME280;65482;50.240;14.302;2023-05-23T04:15:23;99070.00;;;15.47;60.68
76594;BME280;65482;50.240;14.302;2023-05-23T04:17:49;99064.91;;;15.52;60.33
76594;BME280;65482;50.240;14.302;2023-05-23T04:20:15;99062.84;;;15.61;60.43
76594;BME280;65482;50.240;14.302;2023-05-23T04:22:41;99058.38;;;15.62;60.13
76594;BME280;65482;50.240;14.302;2023-05-23T04:25:09;99067.34;;;15.67;60.44
76594;BME280;65482;50.240;14.302;2023-05-23T04:27:34;99064.13;;;15.79;59.74
76594;BME280;65482;50.240;14.302;2023-05-23T04:30:00;99073.13;;;15.84;59.22
76594;BME280;65482;50.240;14.302;2023-05-23T04:32:26;99057.78;;;16.00;58.88
76594;BME280;65482;50.240;14.302;2023-05-23T04:34:51;99062.84;;;16.15;58.91
76594;BME280;65482;50.240;14.302;2023-05-23T04:37:18;99054.03;;;16.21;58.37
76594;BME280;65482;50.240;14.302;2023-05-23T04:39:49;99058.13;;;16.23;58.55
76594;BME280;65482;50.240;14.302;2023-05-23T04:42:15;99053.81;;;16.29;58.20
76594;BME280;65482;50.240;14.302;2023-05-23T04:44:42;99055.22;;;16.38;58.35
76594;BME280;65482;50.240;14.302;2023-05-23T04:47:08;99053.38;;;16.45;58.20
76594;BME280;65482;50.240;14.302;2023-05-23T04:49:35;99047.78;;;16.60;58.08
76594;BME280;65482;50.240;14.302;2023-05-23T04:52:01;99045.88;;;16.74;57.67
76594;BME280;65482;50.240;14.302;2023-05-23T04:54:27;99053.00;;;16.87;56.96
76594;BME280;65482;50.240;14.302;2023-05-23T04:56:52;99059.31;;;16.99;56.51
76594;BME280;65482;50.240;14.302;2023-05-23T04:59:18;99062.13;;;17.11;56.09
76594;BME280;65482;50.240;14.302;2023-05-23T05:01:43;99066.50;;;17.30;55.03
76594;BME280;65482;50.240;14.302;2023-05-23T05:04:09;99065.75;;;17.48;54.41
76594;BME280;65482;50.240;14.302;2023-05-23T05:06:34;99073.28;;;17.58;54.01
76594;BME280;65482;50.240;14.302;2023-05-23T05:09:01;99077.44;;;17.79;54.18
76594;BME280;65482;50.240;14.302;2023-05-23T05:11:26;99083.38;;;17.81;53.55
76594;BME280;65482;50.240;14.302;2023-05-23T05:13:56;99097.13;;;17.78;54.11
76594;BME280;65482;50.240;14.302;2023-05-23T05:16:40;99091.47;;;17.68;54.14
76594;BME280;65482;50.240;14.302;2023-05-23T05:19:07;99092.19;;;17.82;54.27
76594;BME280;65482;50.240;14.302;2023-05-23T05:21:32;99098.56;;;17.81;54.25
76594;BME280;65482;50.240;14.302;2023-05-23T05:23:58;99094.56;;;17.97;53.99
76594;BME280;65482;50.240;14.302;2023-05-23T05:26:24;99098.53;;;18.31;52.68
76594;BME280;65482;50.240;14.302;2023-05-23T05:28:51;99102.78;;;18.57;51.03
76594;BME280;65482;50.240;14.302;2023-05-23T05:31:17;99108.53;;;18.79;50.15
76594;BME280;65482;50.240;14.302;2023-05-23T05:33:43;99107.31;;;18.94;48.18
76594;BME280;65482;50.240;14.302;2023-05-23T05:36:10;99108.78;;;19.08;48.13
76594;BME280;65482;50.240;14.302;2023-05-23T05:38:36;99104.75;;;19.17;47.57
76594;BME280;65482;50.240;14.302;2023-05-23T05:41:04;99115.59;;;19.22;47.29
76594;BME280;65482;50.240;14.302;2023-05-23T05:43:30;99115.38;;;19.24;47.15
76594;BME280;65482;50.240;14.302;2023-05-23T05:46:33;99116.22;;;19.36;47.51
76594;BME280;65482;50.240;14.302;2023-05-23T05:49:26;99104.41;;;19.67;46.28
76594;BME280;65482;50.240;14.302;2023-05-23T05:52:02;99101.13;;;19.72;45.55
76594;BME280;65482;50.240;14.302;2023-05-23T05:55:18;99120.78;;;19.78;45.80
76594;BME280;65482;50.240;14.302;2023-05-23T05:59:01;99122.03;;;19.75;46.41
76594;BME280;65482;50.240;14.302;2023-05-23T06:04:58;99143.69;;;19.74;48.92
76594;BME280;65482;50.240;14.302;2023-05-23T06:07:57;99143.50;;;19.57;49.48
76594;BME280;65482;50.240;14.302;2023-05-23T06:10:23;99146.50;;;19.48;49.44
76594;BME280;65482;50.240;14.302;2023-05-23T06:12:49;99143.44;;;19.45;49.52
76594;BME280;65482;50.240;14.302;2023-05-23T06:15:15;99144.53;;;19.25;49.78
76594;BME280;65482;50.240;14.302;2023-05-23T06:17:43;99152.06;;;19.17;50.34
76594;BME280;65482;50.240;14.302;2023-05-23T06:20:10;99146.25;;;19.20;50.41
76594;BME280;65482;50.240;14.302;2023-05-23T06:22:35;99139.69;;;19.04;50.94
76594;BME280;65482;50.240;14.302;2023-05-23T06:25:02;99136.38;;;18.90;50.46
76594;BME280;65482;50.240;14.302;2023-05-23T06:27:27;99138.78;;;18.73;52.10
76594;BME280;65482;50.240;14.302;2023-05-23T06:29:53;99126.91;;;18.51;52.86
76594;BME280;65482;50.240;14.302;2023-05-23T06:32:18;99119.81;;;18.38;52.90
76594;BME280;65482;50.240;14.302;2023-05-23T06:34:44;99133.06;;;18.26;54.30
76594;BME280;65482;50.240;14.302;2023-05-23T06:37:09;99138.31;;;18.14;55.73
76594;BME280;65482;50.240;14.302;2023-05-23T06:39:35;99126.31;;;18.05;55.61
76594;BME280;65482;50.240;14.302;2023-05-23T06:42:03;99137.06;;;17.92;56.06
76594;BME280;65482;50.240;14.302;2023-05-23T06:44:29;99133.00;;;17.89;57.14
76594;BME280;65482;50.240;14.302;2023-05-23T06:46:54;99138.72;;;17.93;58.56
76594;BME280;65482;50.240;14.302;2023-05-23T06:53:51;99127.19;;;17.67;61.32
76594;BME280;65482;50.240;14.302;2023-05-23T06:56:38;99143.94;;;17.74;60.32
76594;BME280;65482;50.240;14.302;2023-05-23T06:59:05;99145.50;;;17.88;61.33
76594;BME280;65482;50.240;14.302;2023-05-23T07:01:35;99147.81;;;17.85;62.93
76594;BME280;65482;50.240;14.302;2023-05-23T07:04:01;99148.13;;;17.95;62.82
76594;BME280;65482;50.240;14.302;2023-05-23T07:06:27;99156.16;;;17.95;62.38
76594;BME280;65482;50.240;14.302;2023-05-23T07:08:53;99157.22;;;17.87;61.69
76594;BME280;65482;50.240;14.302;2023-05-23T07:11:27;99152.44;;;17.96;61.63
76594;BME280;65482;50.240;14.302;2023-05-23T07:13:56;99161.59;;;18.07;61.27
76594;BME280;65482;50.240;14.302;2023-05-23T07:16:21;99171.50;;;18.00;61.20
76594;BME280;65482;50.240;14.302;2023-05-23T07:18:48;99173.28;;;18.06;60.75
76594;BME280;65482;50.240;14.302;2023-05-23T07:21:13;99181.41;;;18.18;59.37
76594;BME280;65482;50.240;14.302;2023-05-23T07:23:39;99173.84;;;18.15;59.59
76594;BME280;65482;50.240;14.302;2023-05-23T07:26:05;99173.50;;;18.04;58.94
76594;BME280;65482;50.240;14.302;2023-05-23T07:28:31;99173.88;;;18.08;59.18
76594;BME280;65482;50.240;14.302;2023-05-23T07:30:56;99174.94;;;18.07;59.34
76594;BME280;65482;50.240;14.302;2023-05-23T07:38:02;99185.75;;;17.80;60.06
76594;BME280;65482;50.240;14.302;2023-05-23T08:03:53;99188.78;;;17.59;62.67
76594;BME280;65482;50.240;14.302;2023-05-23T08:06:29;99202.53;;;17.56;62.99
76594;BME280;65482;50.240;14.302;2023-05-23T08:17:49;99207.91;;;17.42;64.78
76594;BME280;65482;50.240;14.302;2023-05-23T08:21:09;99220.44;;;17.42;64.35
76594;BME280;65482;50.240;14.302;2023-05-23T08:24:14;99200.13;;;17.47;63.42
76594;BME280;65482;50.240;14.302;2023-05-23T08:32:15;99220.25;;;17.43;63.21
76594;BME280;65482;50.240;14.302;2023-05-23T08:36:01;99216.56;;;17.38;64.91
76594;BME280;65482;50.240;14.302;2023-05-23T08:42:56;99212.47;;;17.35;64.93
76594;BME280;65482;50.240;14.302;2023-05-23T08:46:33;99220.09;;;17.32;64.88
76594;BME280;65482;50.240;14.302;2023-05-23T08:49:16;99222.50;;;17.40;64.24
76594;BME280;65482;50.240;14.302;2023-05-23T08:52:03;99217.97;;;17.47;63.35
76594;BME280;65482;50.240;14.302;2023-05-23T08:54:51;99223.66;;;17.50;62.97
76594;BME280;65482;50.240;14.302;2023-05-23T09:01:10;99226.00;;;17.85;62.27
76594;BME280;65482;50.240;14.302;2023-05-23T09:03:55;99231.41;;;18.04;62.14
76594;BME280;65482;50.240;14.302;2023-05-23T09:07:02;99236.31;;;18.07;62.33
76594;BME280;65482;50.240;14.302;2023-05-23T09:09:49;99232.88;;;18.00;62.81
76594;BME280;65482;50.240;14.302;2023-05-23T09:12:26;99241.94;;;18.24;62.00
76594;BME280;65482;50.240;14.302;2023-05-23T09:15:33;99229.31;;;18.38;61.90
76594;BME280;65482;50.240;14.302;2023-05-23T09:22:34;99231.44;;;18.79;61.40
76594;BME280;65482;50.240;14.302;2023-05-23T09:25:33;99227.53;;;19.00;60.73
76594;BME280;65482;50.240;14.302;2023-05-23T09:28:52;99241.84;;;19.24;59.54
76594;BME280;65482;50.240;14.302;2023-05-23T09:31:58;99240.06;;;19.37;59.90
76594;BME280;65482;50.240;14.302;2023-05-23T09:35:09;99237.13;;;19.57;59.21
76594;BME280;65482;50.240;14.302;2023-05-23T09:37:45;99245.97;;;19.76;59.24
76594;BME280;65482;50.240;14.302;2023-05-23T09:40:13;99240.81;;;20.04;59.07
76594;BME280;65482;50.240;14.302;2023-05-23T09:42:45;99243.19;;;20.24;58.22
76594;BME280;65482;50.240;14.302;2023-05-23T09:45:33;99245.75;;;20.43;58.09
76594;BME280;65482;50.240;14.302;2023-05-23T09:48:26;99243.94;;;20.55;57.98
76594;BME280;65482;50.240;14.302;2023-05-23T09:51:09;99244.06;;;20.60;58.56
76594;BME280;65482;50.240;14.302;2023-05-23T09:53:57;99240.47;;;20.78;58.72
76594;BME280;65482;50.240;14.302;2023-05-23T09:56:53;99246.22;;;21.22;57.73
76594;BME280;65482;50.240;14.302;2023-05-23T10:05:26;99246.41;;;22.48;54.54
76594;BME280;65482;50.240;14.302;2023-05-23T10:08:00;99245.00;;;22.28;54.56
76594;BME280;65482;50.240;14.302;2023-05-23T10:13:21;99241.41;;;22.22;55.04
76594;BME280;65482;50.240;14.302;2023-05-23T10:15:54;99238.84;;;22.28;54.71
76594;BME280;65482;50.240;14.302;2023-05-23T10:18:25;99238.03;;;22.27;54.84
76594;BME280;65482;50.240;14.302;2023-05-23T10:20:56;99246.19;;;22.03;55.61
76594;BME280;65482;50.240;14.302;2023-05-23T10:23:27;99248.47;;;21.95;55.21
76594;BME280;65482;50.240;14.302;2023-05-23T10:25:58;99245.66;;;21.73;55.83
76594;BME280;65482;50.240;14.302;2023-05-23T10:28:25;99251.19;;;21.54;56.37
76594;BME280;65482;50.240;14.302;2023-05-23T10:31:25;99255.91;;;21.23;57.53
76594;BME280;65482;50.240;14.302;2023-05-23T10:34:11;99248.25;;;21.03;57.47
76594;BME280;65482;50.240;14.302;2023-05-23T10:42:18;99247.09;;;20.88;58.49
76594;BME280;65482;50.240;14.302;2023-05-23T10:44:47;99248.72;;;21.00;58.63
76594;BME280;65482;50.240;14.302;2023-05-23T10:47:24;99253.50;;;20.98;58.72
76594;BME280;65482;50.240;14.302;2023-05-23T10:49:51;99248.59;;;21.07;58.73
76594;BME280;65482;50.240;14.302;2023-05-23T10:52:18;99243.44;;;21.17;58.32
76594;BME280;65482;50.240;14.302;2023-05-23T10:54:48;99246.22;;;21.22;58.20
76594;BME280;65482;50.240;14.302;2023-05-23T10:57:16;99239.25;;;21.21;58.31
76594;BME280;65482;50.240;14.302;2023-05-23T10:59:49;99239.69;;;21.30;58.16
76594;BME280;65482;50.240;14.302;2023-05-23T11:02:34;99237.03;;;21.18;58.95
76594;BME280;65482;50.240;14.302;2023-05-23T11:05:20;99238.47;;;21.09;58.41
76594;BME280;65482;50.240;14.302;2023-05-23T11:08:09;99245.09;;;21.06;58.06
76594;BME280;65482;50.240;14.302;2023-05-23T11:11:04;99247.19;;;20.93;58.42
76594;BME280;65482;50.240;14.302;2023-05-23T11:16:30;99242.09;;;20.68;59.08
76594;BME280;65482;50.240;14.302;2023-05-23T11:21:45;99240.53;;;20.36;59.82
76594;BME280;65482;50.240;14.302;2023-05-23T11:24:12;99241.81;;;20.34;60.17
76594;BME280;65482;50.240;14.302;2023-05-23T11:26:38;99237.63;;;20.38;59.79
76594;BME280;65482;50.240;14.302;2023-05-23T11:29:08;99241.25;;;20.43;59.32
76594;BME280;65482;50.240;14.302;2023-05-23T11:31:37;99228.44;;;20.57;58.84
76594;BME280;65482;50.240;14.302;2023-05-23T11:34:08;99239.78;;;20.71;58.69
76594;BME280;65482;50.240;14.302;2023-05-23T11:36:38;99235.66;;;21.04;58.01
76594;BME280;65482;50.240;14.302;2023-05-23T11:39:09;99234.09;;;21.43;56.93
76594;BME280;65482;50.240;14.302;2023-05-23T11:42:04;99225.03;;;21.61;56.26
76594;BME280;65482;50.240;14.302;2023-05-23T11:45:00;99231.09;;;21.69;56.29
76594;BME280;65482;50.240;14.302;2023-05-23T11:48:04;99241.69;;;21.92;55.32
76594;BME280;65482;50.240;14.302;2023-05-23T11:51:31;99228.69;;;22.01;56.38
76594;BME280;65482;50.240;14.302;2023-05-23T11:54:12;99235.28;;;22.10;55.48
76594;BME280;65482;50.240;14.302;2023-05-23T11:56:55;99229.19;;;22.15;55.31
76594;BME280;65482;50.240;14.302;2023-05-23T11:59:24;99232.19;;;22.01;55.06
76594;BME280;65482;50.240;14.302;2023-05-23T12:02:44;99233.75;;;22.14;54.80
76594;BME280;65482;50.240;14.302;2023-05-23T12:05:56;99234.94;;;22.35;54.48
76594;BME280;65482;50.240;14.302;2023-05-23T12:08:50;99230.59;;;22.51;54.44
76594;BME280;65482;50.240;14.302;2023-05-23T12:11:33;99232.31;;;22.57;53.94
76594;BME280;65482;50.240;14.302;2023-05-23T12:14:29;99222.53;;;22.51;53.28
76594;BME280;65482;50.240;14.302;2023-05-23T12:17:30;99221.84;;;22.78;52.14
76594;BME280;65482;50.240;14.302;2023-05-23T12:20:19;99222.31;;;22.92;51.74
76594;BME280;65482;50.240;14.302;2023-05-23T12:22:48;99220.63;;;23.02;50.71
76594;BME280;65482;50.240;14.302;2023-05-23T12:25:24;99216.91;;;23.09;49.96
76594;BME280;65482;50.240;14.302;2023-05-23T12:28:15;99213.19;;;23.32;50.08
76594;BME280;65482;50.240;14.302;2023-05-23T12:30:46;99210.72;;;23.30;50.01
76594;BME280;65482;50.240;14.302;2023-05-23T12:33:13;99218.81;;;23.08;50.51
76594;BME280;65482;50.240;14.302;2023-05-23T12:35:43;99230.94;;;22.94;50.91
76594;BME280;65482;50.240;14.302;2023-05-23T12:38:14;99236.94;;;22.62;51.46
76594;BME280;65482;50.240;14.302;2023-05-23T12:40:42;99234.09;;;22.52;51.90
76594;BME280;65482;50.240;14.302;2023-05-23T12:43:08;99231.69;;;22.50;51.76
76594;BME280;65482;50.240;14.302;2023-05-23T12:45:35;99231.09;;;22.48;52.12
76594;BME280;65482;50.240;14.302;2023-05-23T12:48:02;99225.22;;;22.68;52.07
76594;BME280;65482;50.240;14.302;2023-05-23T12:50:28;99235.50;;;22.93;51.20
76594;BME280;65482;50.240;14.302;2023-05-23T12:52:54;99235.88;;;23.19;49.96
76594;BME280;65482;50.240;14.302;2023-05-23T12:55:22;99242.34;;;23.18;48.65
76594;BME280;65482;50.240;14.302;2023-05-23T12:57:47;99239.25;;;23.09;48.98
76594;BME280;65482;50.240;14.302;2023-05-23T13:00:13;99232.41;;;23.46;48.30
76594;BME280;65482;50.240;14.302;2023-05-23T13:02:39;99236.50;;;23.75;46.91
76594;BME280;65482;50.240;14.302;2023-05-23T13:05:06;99235.19;;;23.51;47.88
76594;BME280;65482;50.240;14.302;2023-05-23T13:07:32;99236.00;;;23.29;47.51
76594;BME280;65482;50.240;14.302;2023-05-23T13:09:58;99243.47;;;23.22;47.70
76594;BME280;65482;50.240;14.302;2023-05-23T13:12:23;99237.94;;;23.12;47.87
76594;BME280;65482;50.240;14.302;2023-05-23T13:14:49;99240.81;;;23.05;46.82
76594;BME280;65482;50.240;14.302;2023-05-23T13:17:15;99245.88;;;22.84;47.28
76594;BME280;65482;50.240;14.302;2023-05-23T13:19:41;99252.81;;;22.80;47.34
76594;BME280;65482;50.240;14.302;2023-05-23T13:22:07;99249.25;;;22.58;47.57
76594;BME280;65482;50.240;14.302;2023-05-23T13:24:36;99241.53;;;22.44;48.42
76594;BME280;65482;50.240;14.302;2023-05-23T13:27:05;99245.34;;;22.32;48.69
76594;BME280;65482;50.240;14.302;2023-05-23T13:29:32;99240.84;;;22.20;49.68
76594;BME280;65482;50.240;14.302;2023-05-23T13:31:58;99238.34;;;22.31;49.58
76594;BME280;65482;50.240;14.302;2023-05-23T13:34:24;99240.88;;;22.37;49.33
76594;BME280;65482;50.240;14.302;2023-05-23T13:36:51;99239.06;;;22.60;49.26
76594;BME280;65482;50.240;14.302;2023-05-23T13:39:19;99235.00;;;22.74;48.93
76594;BME280;65482;50.240;14.302;2023-05-23T13:41:48;99238.41;;;22.70;48.13
76594;BME280;65482;50.240;14.302;2023-05-23T13:44:13;99251.59;;;22.71;48.21
76594;BME280;65482;50.240;14.302;2023-05-23T13:46:39;99251.38;;;22.56;46.90
76594;BME280;65482;50.240;14.302;2023-05-23T13:49:05;99245.59;;;22.47;47.30
76594;BME280;65482;50.240;14.302;2023-05-23T13:51:30;99253.09;;;22.45;48.30
76594;BME280;65482;50.240;14.302;2023-05-23T13:53:57;99250.06;;;22.58;46.80
76594;BME280;65482;50.240;14.302;2023-05-23T13:56:22;99246.72;;;22.51;46.49
76594;BME280;65482;50.240;14.302;2023-05-23T13:58:49;99252.03;;;22.63;46.53
76594;BME280;65482;50.240;14.302;2023-05-23T14:01:14;99259.53;;;22.61;47.22
76594;BME280;65482;50.240;14.302;2023-05-23T14:03:40;99252.03;;;22.63;46.47
76594;BME280;65482;50.240;14.302;2023-05-23T14:06:06;99252.91;;;22.52;45.76
76594;BME280;65482;50.240;14.302;2023-05-23T14:08:32;99245.75;;;22.57;46.35
76594;BME280;65482;50.240;14.302;2023-05-23T14:10:57;99263.19;;;22.55;46.74
76594;BME280;65482;50.240;14.302;2023-05-23T14:13:23;99258.63;;;22.55;46.58
76594;BME280;65482;50.240;14.302;2023-05-23T14:15:49;99258.22;;;22.47;47.35
76594;BME280;65482;50.240;14.302;2023-05-23T14:18:17;99263.03;;;22.44;47.24
76594;BME280;65482;50.240;14.302;2023-05-23T14:20:43;99259.84;;;22.48;46.79
76594;BME280;65482;50.240;14.302;2023-05-23T14:23:09;99258.47;;;22.45;46.78
76594;BME280;65482;50.240;14.302;2023-05-23T14:25:35;99256.34;;;22.47;46.61
76594;BME280;65482;50.240;14.302;2023-05-23T14:28:01;99263.28;;;22.43;46.72
76594;BME280;65482;50.240;14.302;2023-05-23T14:30:26;99260.34;;;22.44;46.33
76594;BME280;65482;50.240;14.302;2023-05-23T14:32:52;99259.44;;;22.73;45.91
76594;BME280;65482;50.240;14.302;2023-05-23T14:35:18;99265.19;;;22.81;45.12
76594;BME280;65482;50.240;14.302;2023-05-23T14:37:44;99268.00;;;22.53;46.17
76594;BME280;65482;50.240;14.302;2023-05-23T14:40:10;99262.44;;;22.59;45.41
76594;BME280;65482;50.240;14.302;2023-05-23T14:42:37;99258.13;;;22.41;45.15